HUT weather

Hutchinson Municipal Airport
Hutchinson, Kansas, United States

Public forecast

Using degrees Fahrenheit for public forecast. Weather courtesy of forecast.io.

METAR (pilot weather report)

Retrieved 2019/07/17 10:52 UTC (44 minutes ago):

KHUT 171052Z 16009KT 10SM SCT120 26/21 A2987 RMK AO2 SLP087 T02610206

TAF (pilot weather forecast)

Retrieved 2019/07/17 06:22 UTC (5 hours ago):

TAF KHUT 170520Z 1706/1806 16011KT P6SM FEW250 FM170900 17009KT P6SM FEW250 WS020/22035KT FM171200 18010KT P6SM FEW250 FM171800 19018G26KT P6SM SKC